Orenburg, Russia
Current Conditions -  °F | °C
As of 2:30 PM on Sunday 23 Nov 2014 (Local Time) from UWOO Reporting Station
Light Snow Light Snow  
Wind Chill: 15°   Ceiling: 1400
Heat Index: 25°   Visibility: 2.7mi
Dew Point: 19°   Wind: 9mph
Humidity: 80%   Direction: 350°N
Pressure: 30.09"   Gusts: NA
Location:  51.78°N, 55.1°E
Report Text: UWOO 230930Z 35004MPS 4400 -SG BR OVC014 M04/M07 Q1019 26190057NOSIG RMK QFE753/1005
Loading
Personal Weather Stations






























Interactive Weather Map New forecast layout! Learn more

10-Day Weather Forecast

Advertisements
Track Severe Weather on mobile